createdAt,value
2022-07-29T00:01:02.586Z,5.38
2022-07-29T00:03:30.804Z,5.56
2022-07-29T00:05:58.832Z,5.85
2022-07-29T00:08:28.802Z,5.75
2022-07-29T00:10:56.854Z,6.05
2022-07-29T00:13:32.171Z,6.07
2022-07-29T00:16:04.447Z,5.68
2022-07-29T00:18:33.312Z,6.10
2022-07-29T00:21:01.436Z,6.06
2022-07-29T00:23:30.713Z,6.20
2022-07-29T00:25:59.694Z,6.32
2022-07-29T00:28:27.676Z,6.21
2022-07-29T00:30:55.635Z,6.35
2022-07-29T00:33:24.469Z,6.21
2022-07-29T00:35:52.430Z,6.60
2022-07-29T00:38:21.455Z,6.12
2022-07-29T00:40:49.548Z,6.42
2022-07-29T00:43:18.324Z,6.38
2022-07-29T00:45:46.251Z,6.48
2022-07-29T00:48:15.347Z,6.33
2022-07-29T00:50:43.597Z,6.30
2022-07-29T00:53:13.144Z,6.38
2022-07-29T00:55:41.307Z,6.20
2022-07-29T00:58:09.822Z,6.07
2022-07-29T01:00:38.063Z,6.52
2022-07-29T01:03:06.169Z,6.58
2022-07-29T01:05:50.576Z,6.98
2022-07-29T01:08:21.478Z,6.67
2022-07-29T01:10:50.436Z,6.80
2022-07-29T01:13:19.162Z,6.76
2022-07-29T01:15:55.777Z,6.73
2022-07-29T01:18:32.168Z,6.79
2022-07-29T01:21:17.004Z,6.65
2022-07-29T01:24:09.638Z,6.94
2022-07-29T01:27:08.132Z,6.54
2022-07-29T01:29:50.521Z,6.73
2022-07-29T01:32:35.611Z,7.10
2022-07-29T01:35:39.485Z,7.03
2022-07-29T01:38:14.920Z,7.06
2022-07-29T01:40:54.314Z,7.14
2022-07-29T01:43:33.955Z,6.68
2022-07-29T01:46:07.548Z,6.97
2022-07-29T01:48:38.672Z,6.95
2022-07-29T01:51:17.982Z,6.75
2022-07-29T01:53:52.970Z,7.13
2022-07-29T01:56:22.848Z,7.35
2022-07-29T01:58:53.687Z,6.70
2022-07-29T02:01:25.161Z,6.90
2022-07-29T02:03:56.085Z,7.27
2022-07-29T02:06:25.723Z,7.55
2022-07-29T02:08:55.256Z,7.48
2022-07-29T02:11:23.300Z,7.02
2022-07-29T02:13:54.402Z,6.85
2022-07-29T02:16:25.106Z,7.07
2022-07-29T02:18:55.442Z,7.13
2022-07-29T02:21:26.454Z,6.77
2022-07-29T02:23:57.114Z,7.10
2022-07-29T02:26:27.502Z,7.10
2022-07-29T02:28:57.876Z,6.83
2022-07-29T02:31:29.749Z,7.23
2022-07-29T02:33:58.507Z,6.83
2022-07-29T02:36:27.643Z,7.25
2022-07-29T02:38:58.681Z,7.15
2022-07-29T02:41:30.636Z,6.83
2022-07-29T02:44:07.634Z,7.11
2022-07-29T02:46:37.940Z,7.47
2022-07-29T02:49:20.342Z,7.21
2022-07-29T02:51:55.725Z,7.13
2022-07-29T02:54:40.763Z,7.71
2022-07-29T02:57:33.217Z,7.71
2022-07-29T03:00:07.817Z,7.87
2022-07-29T03:02:42.152Z,8.05
2022-07-29T03:05:15.402Z,7.81
2022-07-29T03:07:49.336Z,7.73
2022-07-29T03:10:17.975Z,7.59
2022-07-29T03:12:47.770Z,8.00
2022-07-29T03:15:15.961Z,8.06
2022-07-29T03:17:44.620Z,7.81
2022-07-29T03:20:13.938Z,7.85
2022-07-29T03:22:49.308Z,7.99
2022-07-29T03:25:19.388Z,8.09
2022-07-29T03:27:48.913Z,7.84
2022-07-29T03:30:21.689Z,8.12
2022-07-29T03:32:53.855Z,8.00
2022-07-29T03:35:21.933Z,8.43
2022-07-29T03:37:50.137Z,8.28
2022-07-29T03:40:27.307Z,8.01
2022-07-29T03:42:56.995Z,8.31
2022-07-29T03:45:26.696Z,8.13
2022-07-29T03:48:01.195Z,8.14
2022-07-29T03:50:31.854Z,8.70
2022-07-29T03:53:00.261Z,8.25
2022-07-29T03:55:30.543Z,9.11
2022-07-29T03:57:59.705Z,8.87
2022-07-29T04:00:28.845Z,9.08
2022-07-29T04:02:58.059Z,9.11
2022-07-29T04:05:26.075Z,9.26
2022-07-29T04:07:54.145Z,9.44
2022-07-29T04:10:31.450Z,9.63
2022-07-29T04:13:00.847Z,9.28
2022-07-29T04:15:31.098Z,9.13
2022-07-29T04:18:00.438Z,8.70
2022-07-29T04:20:28.560Z,8.79
2022-07-29T04:22:56.593Z,8.92
2022-07-29T04:25:24.668Z,8.46
2022-07-29T04:28:01.522Z,8.41
2022-07-29T04:30:30.905Z,8.52
2022-07-29T04:33:01.745Z,8.50
2022-07-29T04:35:30.823Z,7.89
2022-07-29T04:38:07.251Z,8.16
2022-07-29T04:40:36.243Z,8.08
2022-07-29T04:43:07.188Z,7.59
2022-07-29T04:45:35.273Z,7.92
2022-07-29T04:48:03.409Z,7.82
2022-07-29T04:50:31.392Z,7.79
2022-07-29T04:52:59.332Z,7.81
2022-07-29T04:55:27.401Z,7.92
2022-07-29T04:57:55.342Z,7.95
2022-07-29T05:00:24.178Z,8.40
2022-07-29T05:03:00.208Z,8.10
2022-07-29T05:05:28.317Z,8.27
2022-07-29T05:07:56.615Z,8.91
2022-07-29T05:10:24.644Z,8.43
2022-07-29T05:12:52.618Z,7.92
2022-07-29T05:15:20.926Z,7.74
2022-07-29T05:17:48.844Z,8.39
2022-07-29T05:20:16.805Z,8.07
2022-07-29T05:22:44.726Z,8.01
2022-07-29T05:25:12.689Z,8.36
2022-07-29T05:27:40.682Z,7.94
2022-07-29T05:30:09.112Z,7.87
2022-07-29T05:32:37.033Z,7.94
2022-07-29T05:35:05.324Z,8.01
2022-07-29T05:37:33.236Z,8.04
2022-07-29T05:40:01.241Z,8.19
2022-07-29T05:42:30.185Z,8.91
2022-07-29T05:44:58.197Z,8.96
2022-07-29T05:47:26.246Z,8.78
2022-07-29T05:49:54.985Z,8.63
2022-07-29T05:52:23.189Z,8.18
2022-07-29T05:54:51.130Z,8.54
2022-07-29T05:57:21.076Z,8.59
2022-07-29T05:59:50.440Z,8.75
2022-07-29T06:02:19.292Z,8.35
2022-07-29T06:04:47.197Z,8.64
2022-07-29T06:07:15.188Z,8.44
2022-07-29T06:09:43.564Z,8.63
2022-07-29T06:12:11.621Z,8.49
2022-07-29T06:14:39.740Z,8.27
2022-07-29T06:17:07.944Z,7.67
2022-07-29T06:19:37.341Z,8.13
2022-07-29T06:22:05.839Z,7.76
2022-07-29T06:24:33.855Z,7.79
2022-07-29T06:27:03.072Z,7.94
2022-07-29T06:29:31.712Z,8.35
2022-07-29T06:31:59.705Z,7.92
2022-07-29T06:34:27.725Z,8.28
2022-07-29T06:36:56.064Z,8.00
2022-07-29T06:39:24.269Z,7.98
2022-07-29T06:41:52.180Z,8.46
2022-07-29T06:44:23.690Z,8.00
2022-07-29T06:46:52.630Z,8.44
2022-07-29T06:49:20.686Z,8.13
2022-07-29T06:51:48.782Z,8.45
2022-07-29T06:54:17.480Z,8.51
2022-07-29T06:56:45.824Z,8.12
2022-07-29T06:59:14.278Z,8.63
2022-07-29T07:01:44.117Z,8.11
2022-07-29T07:04:13.164Z,8.48
2022-07-29T07:06:41.446Z,8.98
2022-07-29T07:09:09.417Z,8.42
2022-07-29T07:11:37.427Z,9.03
2022-07-29T07:14:05.504Z,8.57
2022-07-29T07:16:33.655Z,8.84
2022-07-29T07:19:01.712Z,8.93
2022-07-29T07:21:30.956Z,8.82
2022-07-29T07:23:59.818Z,9.03
2022-07-29T07:26:28.714Z,10.11
2022-07-29T07:28:56.758Z,10.31
2022-07-29T07:31:24.824Z,9.71
2022-07-29T07:33:54.315Z,9.51
2022-07-29T07:36:23.056Z,9.49
2022-07-29T07:38:51.237Z,9.87
2022-07-29T07:41:19.403Z,8.73
2022-07-29T07:43:47.550Z,8.58
2022-07-29T07:46:16.324Z,9.44
2022-07-29T07:48:44.350Z,9.23
2022-07-29T07:51:12.654Z,8.25
2022-07-29T07:53:40.748Z,7.81
2022-07-29T07:56:11.379Z,8.00
2022-07-29T07:58:40.782Z,7.87
2022-07-29T08:01:10.329Z,7.34
2022-07-29T08:03:39.106Z,7.27
2022-07-29T08:06:07.655Z,7.37
2022-07-29T08:08:35.648Z,7.27
2022-07-29T08:11:08.963Z,7.42
2022-07-29T08:13:39.133Z,7.74
2022-07-29T08:16:16.183Z,7.55
2022-07-29T08:18:46.655Z,7.77
2022-07-29T08:21:16.358Z,7.86
2022-07-29T08:23:57.690Z,7.42
2022-07-29T08:26:27.912Z,7.48
2022-07-29T08:28:56.019Z,7.70
2022-07-29T08:31:24.033Z,7.12
2022-07-29T08:33:52.073Z,7.53
2022-07-29T08:36:21.972Z,7.14
2022-07-29T08:38:50.620Z,7.42
2022-07-29T08:41:20.087Z,7.31
2022-07-29T08:43:49.136Z,7.40
2022-07-29T08:46:18.223Z,7.26
2022-07-29T08:48:48.174Z,7.31
2022-07-29T08:51:19.929Z,7.23
2022-07-29T08:53:49.816Z,7.19
2022-07-29T08:56:20.047Z,6.83
2022-07-29T08:58:51.897Z,7.54
2022-07-29T09:01:35.043Z,7.54
2022-07-29T09:04:07.308Z,7.60
2022-07-29T09:06:38.761Z,7.65
2022-07-29T09:09:10.042Z,7.47
2022-07-29T09:11:38.282Z,7.04
2022-07-29T09:14:06.702Z,7.42
2022-07-29T09:17:03.596Z,7.32
2022-07-29T09:19:38.558Z,7.34
2022-07-29T09:22:13.698Z,7.17
2022-07-29T09:24:47.788Z,7.62
2022-07-29T09:27:18.479Z,7.75
2022-07-29T09:29:46.423Z,7.98
2022-07-29T09:32:14.404Z,8.17
2022-07-29T09:34:42.355Z,8.81
2022-07-29T09:37:10.351Z,9.14
2022-07-29T09:39:46.821Z,9.08
2022-07-29T09:42:29.306Z,9.70
2022-07-29T09:44:57.452Z,11.13
2022-07-29T09:47:42.833Z,11.49
2022-07-29T09:50:10.901Z,11.76
2022-07-29T09:52:53.006Z,22.18
2022-07-29T09:55:21.042Z,14.46
2022-07-29T09:57:49.041Z,12.86
2022-07-29T10:00:19.822Z,13.00
2022-07-29T10:02:48.698Z,11.67
2022-07-29T10:05:36.872Z,11.52
2022-07-29T10:08:05.535Z,11.54
2022-07-29T10:10:36.923Z,13.64
2022-07-29T10:13:15.188Z,12.54
2022-07-29T10:15:46.784Z,11.44
2022-07-29T10:18:18.544Z,10.12
2022-07-29T10:20:46.682Z,9.48
2022-07-29T10:23:14.958Z,9.98
2022-07-29T10:25:46.182Z,10.32
2022-07-29T10:28:16.673Z,10.60
2022-07-29T10:30:47.391Z,9.86
2022-07-29T10:33:47.492Z,10.26
2022-07-29T10:36:40.204Z,9.38
2022-07-29T10:39:44.492Z,9.09
2022-07-29T10:42:33.609Z,8.79
2022-07-29T10:45:05.158Z,10.16
2022-07-29T10:47:35.305Z,9.40
2022-07-29T10:50:06.321Z,11.73
2022-07-29T10:52:58.452Z,11.05
2022-07-29T10:55:32.831Z,9.69
2022-07-29T10:58:21.509Z,9.60
2022-07-29T11:00:51.948Z,9.58
2022-07-29T11:03:49.442Z,9.67
2022-07-29T11:06:26.758Z,9.97
2022-07-29T11:09:19.987Z,9.54
2022-07-29T11:11:51.615Z,9.43
2022-07-29T11:14:54.814Z,9.60
2022-07-29T11:17:24.712Z,9.35
2022-07-29T11:19:52.773Z,8.91
2022-07-29T11:22:45.868Z,7.87
2022-07-29T11:25:17.137Z,7.30
2022-07-29T11:27:46.499Z,7.45
2022-07-29T11:30:16.128Z,7.59
2022-07-29T11:32:48.632Z,7.55
2022-07-29T11:35:38.534Z,6.23
2022-07-29T11:38:23.229Z,5.91
2022-07-29T11:41:26.005Z,6.68
2022-07-29T11:44:00.706Z,8.24
2022-07-29T11:46:50.484Z,11.94
2022-07-29T11:49:32.312Z,8.10
2022-07-29T11:52:05.511Z,6.00
2022-07-29T11:54:50.896Z,6.65
2022-07-29T11:57:36.666Z,6.43
2022-07-29T12:00:12.449Z,6.54
2022-07-29T12:02:44.119Z,6.06
2022-07-29T12:05:35.863Z,5.67
2022-07-29T12:08:14.777Z,5.96
2022-07-29T12:10:44.598Z,6.36
2022-07-29T12:13:14.075Z,7.19
2022-07-29T12:15:47.099Z,8.11
2022-07-29T12:18:19.028Z,6.09
2022-07-29T12:20:48.956Z,5.65
2022-07-29T12:23:17.483Z,5.73
2022-07-29T12:25:49.847Z,5.30
2022-07-29T12:28:26.989Z,5.57
2022-07-29T12:30:55.688Z,5.38
2022-07-29T12:33:29.449Z,4.78
2022-07-29T12:36:10.315Z,4.95
2022-07-29T12:38:42.039Z,4.75
2022-07-29T12:41:10.304Z,4.87
2022-07-29T12:43:38.335Z,5.08
2022-07-29T12:46:15.024Z,6.66
2022-07-29T12:48:44.702Z,5.39
2022-07-29T12:51:15.391Z,4.39
2022-07-29T12:54:11.688Z,4.17
2022-07-29T12:56:43.588Z,4.41
2022-07-29T12:59:30.093Z,3.90
2022-07-29T13:02:00.942Z,3.83
2022-07-29T13:04:31.925Z,4.13
2022-07-29T13:07:10.370Z,4.57
2022-07-29T13:09:44.771Z,4.37
2022-07-29T13:12:14.911Z,4.41
2022-07-29T13:14:51.129Z,4.46
2022-07-29T13:17:22.351Z,4.79
2022-07-29T13:19:53.276Z,5.21
2022-07-29T13:22:25.615Z,5.14
2022-07-29T13:24:59.012Z,5.21
2022-07-29T13:27:28.760Z,5.02
2022-07-29T13:29:58.764Z,5.38
2022-07-29T13:32:29.150Z,5.09
2022-07-29T13:34:59.037Z,5.20
2022-07-29T13:37:30.386Z,5.06
2022-07-29T13:39:58.487Z,5.52
2022-07-29T13:42:27.576Z,9.46
2022-07-29T13:44:55.610Z,6.45
2022-07-29T13:47:31.844Z,7.49
2022-07-29T13:50:06.624Z,7.41
2022-07-29T13:52:35.596Z,7.64
2022-07-29T13:55:04.148Z,6.78
2022-07-29T13:57:32.143Z,6.69
2022-07-29T14:00:00.096Z,7.04
2022-07-29T14:02:28.115Z,7.44
2022-07-29T14:04:56.260Z,7.33
2022-07-29T14:07:24.293Z,7.56
2022-07-29T14:09:52.299Z,7.18
2022-07-29T14:12:20.523Z,7.22
2022-07-29T14:14:48.456Z,6.51
2022-07-29T14:17:16.620Z,6.67
2022-07-29T14:19:44.667Z,6.54
2022-07-29T14:22:12.621Z,6.85
2022-07-29T14:24:40.669Z,6.18
2022-07-29T14:27:09.397Z,6.73
2022-07-29T14:29:38.755Z,5.93
2022-07-29T14:32:08.275Z,5.59
2022-07-29T14:34:37.923Z,5.90
2022-07-29T14:37:07.033Z,5.58
2022-07-29T14:39:42.941Z,5.66
2022-07-29T14:42:12.573Z,5.14
2022-07-29T14:44:42.422Z,5.43
2022-07-29T14:47:10.717Z,5.04
2022-07-29T14:49:38.741Z,5.10
2022-07-29T14:52:06.963Z,5.12
2022-07-29T14:54:34.934Z,6.28
2022-07-29T14:57:03.081Z,5.23
2022-07-29T14:59:31.659Z,4.57
2022-07-29T15:02:00.147Z,4.41
2022-07-29T15:04:28.398Z,4.45
2022-07-29T15:06:56.309Z,4.39
2022-07-29T15:09:24.688Z,4.68
2022-07-29T15:11:52.623Z,4.55
2022-07-29T15:14:20.599Z,5.00
2022-07-29T15:16:48.806Z,4.96
2022-07-29T15:19:16.843Z,4.52
2022-07-29T15:21:48.402Z,4.50
2022-07-29T15:24:17.945Z,4.98
2022-07-29T15:26:46.282Z,4.48
2022-07-29T15:29:15.216Z,4.89
2022-07-29T15:31:44.115Z,4.65
2022-07-29T15:34:12.121Z,4.15
2022-07-29T15:36:55.564Z,4.68
2022-07-29T15:39:23.571Z,4.08
2022-07-29T15:41:52.084Z,3.86
2022-07-29T15:44:21.267Z,4.67
2022-07-29T15:47:05.774Z,4.99
2022-07-29T15:49:48.056Z,3.93
2022-07-29T15:52:26.007Z,3.60
2022-07-29T15:54:56.735Z,3.76
2022-07-29T15:57:24.847Z,3.87
2022-07-29T15:59:53.112Z,3.93
2022-07-29T16:02:21.048Z,4.36
2022-07-29T16:04:49.145Z,3.76
2022-07-29T16:07:17.233Z,3.73
2022-07-29T16:09:50.807Z,3.91
2022-07-29T16:12:20.689Z,3.97
2022-07-29T16:14:50.855Z,4.11
2022-07-29T16:17:19.957Z,4.03
2022-07-29T16:19:48.159Z,3.98
2022-07-29T16:22:16.172Z,3.84
2022-07-29T16:24:44.196Z,4.00
2022-07-29T16:27:12.099Z,3.83
2022-07-29T16:29:40.164Z,5.21
2022-07-29T16:32:08.153Z,4.08
2022-07-29T16:34:36.132Z,4.44
2022-07-29T16:37:04.775Z,4.53
2022-07-29T16:39:33.103Z,5.79
2022-07-29T16:42:04.004Z,4.34
2022-07-29T16:44:34.849Z,4.78
2022-07-29T16:47:03.710Z,4.76
2022-07-29T16:49:32.349Z,4.94
2022-07-29T16:52:00.343Z,4.77
2022-07-29T16:54:29.082Z,4.94
2022-07-29T16:56:57.562Z,4.95
2022-07-29T16:59:25.722Z,5.27
2022-07-29T17:01:53.687Z,5.28
2022-07-29T17:04:22.968Z,5.47
2022-07-29T17:06:51.153Z,5.44
2022-07-29T17:09:19.096Z,5.18
2022-07-29T17:11:54.996Z,5.58
2022-07-29T17:14:25.941Z,5.31
2022-07-29T17:17:01.370Z,5.76
2022-07-29T17:19:33.655Z,5.81
2022-07-29T17:22:17.155Z,6.80
2022-07-29T17:24:49.267Z,5.38
2022-07-29T17:27:17.767Z,5.59
2022-07-29T17:29:46.019Z,5.12
2022-07-29T17:32:14.239Z,5.23
2022-07-29T17:34:43.102Z,6.10
2022-07-29T17:37:12.915Z,6.66
2022-07-29T17:39:43.321Z,6.28
2022-07-29T17:42:14.554Z,6.40
2022-07-29T17:44:43.410Z,6.65
2022-07-29T17:47:16.268Z,6.89
2022-07-29T17:49:46.004Z,6.42
2022-07-29T17:52:16.679Z,5.99
2022-07-29T17:54:45.945Z,6.51
2022-07-29T17:57:14.579Z,6.35
2022-07-29T17:59:43.228Z,5.47
2022-07-29T18:02:14.338Z,6.36
2022-07-29T18:04:43.395Z,5.96
2022-07-29T18:07:11.892Z,5.19
2022-07-29T18:09:40.575Z,5.24
2022-07-29T18:12:09.647Z,5.14
2022-07-29T18:14:38.742Z,5.02
2022-07-29T18:17:07.163Z,4.91
2022-07-29T18:19:35.447Z,5.16
2022-07-29T18:22:05.251Z,5.06
2022-07-29T18:24:34.130Z,5.20
2022-07-29T18:27:03.267Z,5.15
2022-07-29T18:29:31.243Z,5.16
2022-07-29T18:32:00.000Z,5.11
2022-07-29T18:34:28.907Z,5.13
2022-07-29T18:36:57.144Z,5.27
2022-07-29T18:39:25.342Z,5.61
2022-07-29T18:41:53.315Z,7.64
2022-07-29T18:44:22.037Z,11.72
2022-07-29T18:46:51.849Z,11.46
2022-07-29T18:49:20.108Z,8.44
2022-07-29T18:51:49.171Z,6.44
2022-07-29T18:54:17.860Z,5.94
2022-07-29T18:56:46.978Z,6.06
2022-07-29T18:59:17.043Z,5.71
2022-07-29T19:01:45.717Z,5.98
2022-07-29T19:04:13.825Z,6.53
2022-07-29T19:06:42.209Z,6.24
2022-07-29T19:09:10.875Z,6.66
2022-07-29T19:11:39.766Z,6.76
2022-07-29T19:14:07.967Z,6.24
2022-07-29T19:16:36.049Z,6.94
2022-07-29T19:19:04.386Z,7.11
2022-07-29T19:21:32.434Z,6.75
2022-07-29T19:24:06.771Z,7.42
2022-07-29T19:26:36.758Z,6.93
2022-07-29T19:29:05.102Z,7.01
2022-07-29T19:31:33.136Z,7.27
2022-07-29T19:34:01.110Z,7.69
2022-07-29T19:36:30.595Z,8.11
2022-07-29T19:39:00.118Z,8.11
2022-07-29T19:41:29.461Z,8.19
2022-07-29T19:43:57.433Z,8.28
2022-07-29T19:46:28.884Z,7.81
2022-07-29T19:48:58.095Z,8.13
2022-07-29T19:51:26.989Z,10.78
2022-07-29T19:53:56.289Z,10.04
2022-07-29T19:56:26.687Z,7.14
2022-07-29T19:58:57.083Z,6.25
2022-07-29T20:01:25.200Z,7.63
2022-07-29T20:03:53.939Z,6.30
2022-07-29T20:06:23.111Z,4.87
2022-07-29T20:08:55.371Z,4.77
2022-07-29T20:11:26.611Z,4.89
2022-07-29T20:13:54.526Z,4.25
2022-07-29T20:16:22.689Z,3.55
2022-07-29T20:18:53.471Z,3.38
2022-07-29T20:21:21.386Z,3.52
2022-07-29T20:23:49.323Z,3.42
2022-07-29T20:26:17.518Z,3.23
2022-07-29T20:28:49.299Z,3.32
2022-07-29T20:31:18.850Z,3.04
2022-07-29T20:33:47.382Z,3.16
2022-07-29T20:36:15.412Z,3.11
2022-07-29T20:38:43.434Z,3.00
2022-07-29T20:41:11.411Z,2.60
2022-07-29T20:43:39.389Z,2.70
2022-07-29T20:46:07.371Z,3.06
2022-07-29T20:48:35.525Z,3.41
2022-07-29T20:51:03.439Z,3.16
2022-07-29T20:53:32.291Z,3.51
2022-07-29T20:56:00.423Z,3.82
2022-07-29T20:58:28.391Z,4.02
2022-07-29T21:00:56.469Z,4.61
2022-07-29T21:03:24.385Z,4.88
2022-07-29T21:05:52.355Z,5.20
2022-07-29T21:08:20.370Z,5.22
2022-07-29T21:10:48.423Z,5.55
2022-07-29T21:13:17.075Z,5.36
2022-07-29T21:15:48.745Z,5.31
2022-07-29T21:18:34.406Z,5.38
2022-07-29T21:21:04.727Z,5.57
2022-07-29T21:23:32.699Z,5.59
2022-07-29T21:26:00.757Z,5.43
2022-07-29T21:28:36.712Z,5.53
2022-07-29T21:31:11.088Z,5.68
2022-07-29T21:33:41.498Z,5.23
2022-07-29T21:36:44.008Z,5.47
2022-07-29T21:38:58.754Z,5.34
2022-07-29T21:41:26.744Z,5.32
2022-07-29T21:43:54.720Z,5.00
2022-07-29T21:46:26.262Z,5.32
2022-07-29T21:48:54.184Z,4.95
2022-07-29T21:51:22.155Z,5.40
2022-07-29T21:53:50.618Z,5.59
2022-07-29T21:56:21.172Z,5.80
2022-07-29T21:58:51.640Z,5.74
2022-07-29T22:01:19.622Z,5.29
2022-07-29T22:03:47.514Z,4.80
2022-07-29T22:06:17.935Z,5.00
2022-07-29T22:08:47.831Z,5.57
2022-07-29T22:11:15.874Z,5.10
2022-07-29T22:13:43.750Z,5.20
2022-07-29T22:16:14.909Z,4.84
2022-07-29T22:18:46.712Z,4.71
2022-07-29T22:21:15.592Z,5.12
2022-07-29T22:23:43.607Z,4.94
2022-07-29T22:26:11.541Z,5.17
2022-07-29T22:28:39.509Z,4.93
2022-07-29T22:31:08.668Z,5.11
2022-07-29T22:33:36.719Z,5.13
2022-07-29T22:36:05.010Z,5.04
2022-07-29T22:38:32.974Z,4.82
2022-07-29T22:41:01.628Z,5.33
2022-07-29T22:43:31.317Z,4.99
2022-07-29T22:45:59.442Z,4.85
2022-07-29T22:48:27.510Z,4.83
2022-07-29T22:50:55.567Z,5.30
2022-07-29T22:53:23.539Z,5.37
2022-07-29T22:55:51.478Z,5.67
2022-07-29T22:58:19.427Z,5.31
2022-07-29T23:00:47.387Z,5.42
2022-07-29T23:03:15.367Z,5.32
2022-07-29T23:05:43.383Z,5.10
2022-07-29T23:08:11.277Z,5.32
2022-07-29T23:10:39.244Z,5.12
2022-07-29T23:13:07.350Z,5.07
2022-07-29T23:15:35.391Z,4.88
2022-07-29T23:18:03.533Z,4.88
2022-07-29T23:20:31.472Z,4.72
2022-07-29T23:23:00.645Z,4.20
2022-07-29T23:25:28.689Z,3.95
2022-07-29T23:27:56.633Z,3.97
2022-07-29T23:30:24.902Z,3.43
2022-07-29T23:32:52.892Z,3.59
2022-07-29T23:35:21.407Z,3.76
2022-07-29T23:37:49.366Z,3.58
2022-07-29T23:40:17.463Z,3.23
2022-07-29T23:42:45.537Z,3.14
2022-07-29T23:45:14.376Z,3.14
2022-07-29T23:47:42.724Z,3.17
2022-07-29T23:50:12.583Z,2.85
2022-07-29T23:52:41.109Z,2.82
2022-07-29T23:55:36.839Z,2.93
2022-07-29T23:57:58.263Z,2.84
